Weather reports worldwide

Advertisment
Väderöarna, Sweden (2501): temperature & dewpoint: 01.07.2020 20:00:00 - 07.07.2020 20:00:00 (CEST)Väderöarna, Sweden (2501): wind speed & gusts: 01.07.2020 20:00:00 - 07.07.2020 20:00:00 (CEST)Väderöarna, Sweden (2501): wind direction: 01.07.2020 20:00:00 - 07.07.2020 20:00:00 (CEST)Väderöarna, Sweden (2501): reduced air pressure: 01.07.2020 20:00:00 - 07.07.2020 20:00:00 (CEST)
Date & Time tt [°C] td [°C] ff [km/h] ff [kn] fx [km/h] fx [kn] dd ppp [hPa]
07.07.2020 20:00:00 14,1 4,3 37 20 52 28 W 1003,3
07.07.2020 19:00:00 14,1 4,7 42 23 58 31 W 1003,2
07.07.2020 18:00:00 14,7 7,0 46 25 57 31 WSW 1003,4
07.07.2020 17:00:00 13,9 8,5 46 25 61 33 WSW 1003,7
07.07.2020 16:00:00 13,5 8,3 51 28 59 32 WSW 1003,9
07.07.2020 15:00:00 13,2 7,8 46 25 58 31 WSW 1004,4
07.07.2020 14:00:00 13,6 7,8 44 24 55 30 SW 1004,3
07.07.2020 13:00:00 13,2 7,4 44 24 55 30 WSW 1004,5
07.07.2020 12:00:00 13,5 6,6 41 22 55 30 WSW 1004,6
07.07.2020 11:00:00 13,5 7,0 37 20 54 29 WSW 1005,0
07.07.2020 10:00:00 13,0 6,3 48 26 61 33 WSW 1004,3
07.07.2020 09:00:00 13,2 7,0 45 24 58 31 WSW 1004,5
07.07.2020 08:00:00 13,1 6,9 44 24 59 32 WSW 1004,3
07.07.2020 07:00:00 13,1 7,5 48 26 61 33 W 1004,2
07.07.2020 06:00:00 13,3 6,6 54 29 63 34 W 1003,7
07.07.2020 05:00:00 13,5 5,9 45 25 55 30 W 1004,2
07.07.2020 04:00:00 13,5 5,4 49 27 62 33 W 1003,7
07.07.2020 03:00:00 13,8 5,9 49 26 61 33 W 1002,8
07.07.2020 02:00:00 14,4 6,5 51 27 62 34 WNW 1002,3
07.07.2020 01:00:00 15,2 6,7 48 26 57 31 WNW 1001,6
07.07.2020 00:00:00 15,9 7,1 41 22 51 28 WNW 1000,9
06.07.2020 23:00:00 16,2 7,9 39 21 49 27 WNW 1000,0
06.07.2020 22:00:00 16,5 9,2 34 18 53 29 WNW 999,1
06.07.2020 21:00:00 16,3 9,2 34 18 44 24 W 997,7
06.07.2020 20:00:00 15,7 10,5 27 15 47 25 WNW 997,0
06.07.2020 19:00:00 15,8 10,8 30 16 38 20 NW 995,6
06.07.2020 18:00:00 15,5 10,3 35 19 52 28 NW 994,0
06.07.2020 17:00:00 15,0 11,2 46 25 56 31 WNW 992,1
06.07.2020 16:00:00 16,2 12,7 23 13 36 19 W 991,4
06.07.2020 15:00:00 15,4 10,8 29 16 42 23 W 990,1
06.07.2020 14:00:00 14,4 11,9 35 19 60 32 WSW 989,2
06.07.2020 13:00:00 13,5 10,7 55 30 77 42 SW 989,0
06.07.2020 12:00:00 13,8 10,2 63 34 78 42 SW 988,6
06.07.2020 11:00:00 13,6 9,8 66 36 81 44 SW 988,7
06.07.2020 10:00:00 13,8 9,8 68 37 87 47 SW 988,8
06.07.2020 09:00:00 13,7 9,9 64 35 81 44 SW 988,8
06.07.2020 08:00:00 13,5 9,5 65 35 80 43 SW 988,7
06.07.2020 07:00:00 13,4 9,4 65 35 80 43 SW 988,7
06.07.2020 06:00:00 13,4 9,4 61 33 79 43 WSW 988,9
06.07.2020 05:00:00 13,5 9,4 61 33 81 44 WSW 989,1
06.07.2020 04:00:00 13,5 9,4 64 35 87 47 WSW 989,2
06.07.2020 03:00:00 13,4 8,9 66 35 82 44 WSW 989,7
06.07.2020 02:00:00 13,6 9,6 67 36 84 45 WSW 990,5
06.07.2020 01:00:00 13,9 9,9 66 36 86 47 WSW 990,7
06.07.2020 00:00:00 13,7 9,5 71 38 90 49 WSW 990,4
05.07.2020 23:00:00 14,0 9,8 72 39 92 50 WSW 990,2
05.07.2020 22:00:00 14,1 10,5 72 39 96 52 SW 990,0
05.07.2020 21:00:00 14,6 11,0 76 41 101 55 SW 988,4
05.07.2020 20:00:00 14,8 11,8 74 40 96 52 SW 988,0
05.07.2020 19:00:00 14,7 11,5 72 39 91 49 SW 988,0
05.07.2020 18:00:00 14,9 10,9 69 37 87 47 SW 988,3
05.07.2020 17:00:00 15,2 11,2 74 40 95 51 SW 988,3
05.07.2020 16:00:00 15,6 12,0 67 36 88 48 SW 988,0
05.07.2020 15:00:00 16,1 14,1 56 31 82 44 SW 988,2
05.07.2020 14:00:00 15,9 14,8 63 34 74 40 SW 987,5
05.07.2020 13:00:00 16,0 14,9 57 31 74 40 SW 987,7
05.07.2020 12:00:00 16,1 15,5 53 28 74 40 S 988,6
05.07.2020 11:00:00 15,7 15,4 52 28 65 35 S 989,6
05.07.2020 10:00:00 15,5 15,3 44 24 53 29 S 991,9
05.07.2020 09:00:00 14,2 13,6 31 17 38 21 SE 994,0
05.07.2020 08:00:00 14,2 12,6 28 15 37 20 SSE 995,9
05.07.2020 07:00:00 14,5 12,2 27 15 32 18 S 997,1
05.07.2020 06:00:00 14,7 11,7 26 14 37 20 SSW 998,3
05.07.2020 05:00:00 14,9 12,4 23 13 31 17 S 999,1
05.07.2020 04:00:00 14,7 12,2 24 13 31 17 SSW 1000,0
05.07.2020 03:00:00 14,2 12,9 23 12 31 17 SW 1000,5
05.07.2020 02:00:00 15,2 11,6 21 11 29 16 SSW 1001,5
05.07.2020 01:00:00 15,1 11,5 22 12 28 15 SSW 1001,4
05.07.2020 00:00:00 15,1 12,4 20 11 29 16 SSW 1001,8
04.07.2020 23:00:00 15,2 12,3 16 9 22 12 SSW 1002,1
04.07.2020 22:00:00 15,2 11,4 10 6 19 10 SSW 1001,9
04.07.2020 21:00:00 15,4 10,6 16 9 19 11 SW 1002,4
04.07.2020 20:00:00 15,7 10,0 6 3 11 6 WSW 1002,3
04.07.2020 19:00:00 15,6 10,1 6 4 12 6 NW 1002,3
04.07.2020 18:00:00 15,6 10,1 10 5 17 9 WNW 1002,5
04.07.2020 17:00:00 15,7 10,7 13 7 19 11 WNW 1002,6
04.07.2020 16:00:00 16,0 10,5 12 7 16 8 WNW 1002,6
04.07.2020 15:00:00 15,3 10,5 7 4 13 7 WNW 1002,6
04.07.2020 14:00:00 15,7 11,1 7 4 13 7 NNE 1002,4
04.07.2020 13:00:00 14,7 10,5 8 4 14 7 NNE 1002,5
04.07.2020 12:00:00 14,0 10,2 9 5 16 8 NNE 1002,2
04.07.2020 11:00:00 13,6 9,6 10 5 19 11 N 1001,9
04.07.2020 10:00:00 13,5 10,1 15 8 23 12 NNE 1001,4
04.07.2020 09:00:00 12,9 9,5 20 11 31 17 NNE 1000,8
04.07.2020 08:00:00 12,6 10,8 22 12 37 20 N 1000,4
04.07.2020 07:00:00 12,2 11,4 26 14 35 19 N 1000,0
04.07.2020 06:00:00 13,1 12,3 5 3 8 4 NE 1000,5
04.07.2020 05:00:00 13,3 11,7 6 3 9 5 S 1000,9
04.07.2020 04:00:00 13,1 11,2 8 4 21 12 SSW 1001,6
04.07.2020 03:00:00 13,0 11,4 19 11 36 20 WSW 1002,5
04.07.2020 02:00:00 13,2 11,6 32 17 51 27 WSW 1003,0
04.07.2020 01:00:00 13,9 11,4 40 22 46 25 SW 1003,1
04.07.2020 00:00:00 14,0 11,5 32 17 41 22 SSW 1003,8
03.07.2020 23:00:00 13,5 10,8 37 20 48 26 S 1004,7
03.07.2020 22:00:00 14,4 9,6 41 22 49 27 SSW 1005,3
03.07.2020 21:00:00 13,8 10,4 29 16 60 33 SSW 1006,0
03.07.2020 20:00:00 14,2 10,2 36 20 53 29 SSW 1006,4
03.07.2020 19:00:00 14,6 8,3 40 22 48 26 SW 1006,6
03.07.2020 18:00:00 14,8 7,8 41 22 52 28 SW 1007,1
03.07.2020 17:00:00 14,8 6,9 42 23 50 27 SW 1007,3
03.07.2020 16:00:00 14,6 7,9 42 23 52 28 SW 1007,5
03.07.2020 15:00:00 14,3 8,0 42 23 51 28 SW 1007,8
03.07.2020 14:00:00 14,2 7,3 41 22 53 29 SW 1007,9
03.07.2020 13:00:00 14,2 7,0 39 21 48 26 SW 1008,0
03.07.2020 12:00:00 14,0 6,1 43 23 52 28 WSW 1007,8
03.07.2020 11:00:00 14,0 7,1 41 22 50 27 WSW 1007,8
03.07.2020 10:00:00 14,2 7,0 36 20 49 26 WSW 1007,6
03.07.2020 09:00:00 13,7 5,8 32 17 45 25 W 1007,4
03.07.2020 08:00:00 13,6 6,0 33 18 41 22 WSW 1007,1
03.07.2020 07:00:00 13,7 6,1 34 19 41 22 W 1006,7
03.07.2020 06:00:00 13,6 5,2 32 18 41 22 W 1006,4
03.07.2020 05:00:00 13,7 6,0 33 18 41 22 W 1006,0
03.07.2020 04:00:00 14,1 5,1 34 19 42 23 W 1005,9
03.07.2020 03:00:00 14,5 5,6 35 19 44 24 W 1005,5
03.07.2020 02:00:00 14,8 7,0 38 21 49 26 W 1005,1
03.07.2020 01:00:00 15,4 6,3 38 20 49 26 W 1004,9
03.07.2020 00:00:00 16,0 4,4 39 21 50 27 W 1004,6
02.07.2020 23:00:00 16,5 5,7 44 24 55 30 W 1003,7
02.07.2020 22:00:00 16,3 9,5 49 26 61 33 WSW 1003,2
02.07.2020 21:00:00 16,2 9,5 51 28 62 34 WSW 1002,8
02.07.2020 20:00:00 16,5 9,1 51 28 62 34 WSW 1002,5
02.07.2020 19:00:00 16,6 10,1 51 27 61 33 WSW 1002,1
02.07.2020 18:00:00 16,9 9,3 49 26 59 32 WSW 1002,1
02.07.2020 17:00:00 16,8 7,7 46 25 55 30 WSW 1002,0
02.07.2020 16:00:00 16,9 8,1 44 24 57 31 WSW 1001,8
02.07.2020 15:00:00 16,6 6,1 42 23 50 27 WSW 1001,5
02.07.2020 14:00:00 16,1 7,3 34 18 42 23 WSW 1001,4
02.07.2020 13:00:00 16,0 8,5 30 16 40 22 W 1001,0
02.07.2020 12:00:00 15,7 9,8 32 18 43 23 WSW 1000,3
02.07.2020 11:00:00 15,5 9,4 30 16 40 21 WSW 999,8
02.07.2020 10:00:00 15,5 9,4 30 16 39 21 WSW 999,0
02.07.2020 09:00:00 15,1 9,2 32 17 41 22 WSW 998,5
02.07.2020 08:00:00 14,3 8,0 34 19 45 24 WSW 998,2
02.07.2020 07:00:00 14,3 7,8 36 19 44 24 WSW 998,0
02.07.2020 06:00:00 14,6 7,9 35 19 42 23 SW 997,7
02.07.2020 05:00:00 15,3 9,0 34 18 44 24 SW 997,5
02.07.2020 04:00:00 15,5 9,8 36 19 49 27 WSW 997,7
02.07.2020 03:00:00 15,5 10,9 41 22 50 27 WSW 997,8
02.07.2020 02:00:00 15,3 11,1 42 23 53 28 SW 997,8
02.07.2020 01:00:00 15,9 11,7 44 24 54 29 WSW 997,8
02.07.2020 00:00:00 15,9 12,1 44 24 53 29 SW 998,2
01.07.2020 23:00:00 15,9 11,7 42 23 55 30 SW 998,2
01.07.2020 22:00:00 15,8 10,8 45 25 56 30 SW 997,9
01.07.2020 21:00:00 16,0 11,4 48 26 59 32 SW 997,8
01.07.2020 20:00:00 16,0 11,2 51 27 61 33 WSW 997,5

tt = temperature
td = dewpoint
ff = wind speed
fx = gusts
dd = wind direction
ppp = reduced air pressure

Next stations